Terminal Aerodrome Forecast
Issued by NWS

Home | Current Version | Previous Version | Text Only | Print | Product List | Glossary On
Versions: 1 2 3 4 5 6 7 8 9 10 11 12 13 14 15 16 17 18 19 20 21 22 23 24 25
000
FTUS46 KLOX 110803 AAA
TAFPRB
TAF AMD
KPRB 110803Z 1108/1206 19006KT P6SM VCSH SCT015 BKN050
     FM111500 33005KT 6SM -SHRA SCT012 BKN025
     FM112100 35003KT P6SM OVC025
     FM120300 VRB03KT 5SM BR OVC050=

USA.gov is the U.S. government's official web portal to all federal, state and local government web resources and services.